Latest Coastal Weather Observations for Melbourne (Olympic Park)

IDV60701

Issued at 2:31 am EDT Wednesday 1 April 2015 (issued every 10 minutes, with the page automatically refreshed every 10 minutes)

About coastal observations | Map of coastal stations | Coastal observations for VIC | Marine services | Other Formats
Station Details ID: 086338 Name: MELBOURNE (OLYMPIC PARK) Lat: -37.83 Lon: 144.98 Height: 7.53 m
Data from the previous 72 hours. | See also: Recent months at Melbourne (Olympic Park)
Date/Time
EDT
Temp

°C
Wind Pressure Rain
since 9am
mm
Weather Cloud Vis
km
Sea
Height
m
Swell
Dir
 
Speed
knots
Gust
knots
hPa Trend Height
m
Period
s
Dir
01/02:30am 16.1 NNE 5 8 1020.5 - 0.0 - - - - - - -
01/02:00am 16.2 NNE 5 7 1020.8 - 0.0 - - - - - - -
01/01:30am 16.3 NNE 5 6 1021.1 - 0.0 - - - - - - -
01/01:00am 15.0 CALM 0 0 1021.3 - 0.0 - - - - - - -
01/12:30am 15.3 CALM 0 0 1021.7 - 0.0 - - - - - - -
01/12:00am 15.6 CALM 0 0 1021.9 - 0.0 - - - - - - -
 
Date/Time
EDT
Temp

°C
Wind Pressure Rain
since 9am
mm
Weather Cloud Vis
km
Sea
Height
m
Swell
Dir
 
Speed
knots
Gust
knots
hPa Trend Height
m
Period
s
Dir
31/11:30pm 15.8 CALM 0 0 1022.0 - 0.0 - - - - - - -
31/11:00pm 16.4 CALM 0 0 1021.9 - 0.0 - - - - - - -
31/10:30pm 16.8 CALM 0 0 1022.0 - 0.0 - - - - - - -
31/10:00pm 17.6 CALM 0 0 1022.3 - 0.0 - - - - - - -
31/09:30pm 18.2 CALM 0 2 1022.5 - 0.0 - - - - - - -
31/09:00pm 18.8 SSW 2 5 1022.2 - 0.0 - - - - - - -
31/08:30pm 18.7 CALM 0 3 1021.8 - 0.0 - - - - - - -
31/08:00pm 19.4 CALM 0 0 1021.5 - 0.0 - - - - - - -
31/07:30pm 19.5 CALM 0 3 1021.1 - 0.0 - - - - - - -
31/07:00pm 20.6 SSW 1 3 1021.1 - 0.0 - - - - - - -
31/06:30pm 22.1 SW 3 7 1021.2 - 0.0 - - - - - - -
31/06:00pm 22.8 SW 4 6 1021.0 - 0.0 - - - - - - -
31/05:30pm 22.6 SW 4 8 1021.0 - 0.0 - - - - - - -
31/05:00pm 23.8 SW 4 7 1021.1 - 0.0 - - - - - - -
31/04:30pm 24.8 SSW 4 8 1021.4 - 0.0 - - - - - - -
31/04:00pm 24.4 SSW 4 7 1021.7 - 0.0 - - - - - - -
31/03:30pm 23.7 SW 4 8 1022.1 - 0.0 - - - - - - -
31/03:00pm 22.3 SSW 6 10 1022.4 - 0.0 - - - - - - -
31/02:30pm 22.4 SSW 5 7 1022.7 - 0.0 - - - - - - -
31/02:00pm 21.9 SSW 5 8 1023.3 - 0.0 - - - - - - -
31/01:30pm 22.0 SSW 6 9 1023.8 - 0.0 - - - - - - -
31/01:00pm 22.9 NE 1 5 1024.4 - 0.0 - - - - - - -
31/12:30pm 21.9 NNE 3 7 1024.9 - 0.0 - - - - - - -
31/12:00pm 20.8 NNE 2 7 1025.6 - 0.0 - - - - - - -
31/11:30am 20.2 NE 3 5 1026.2 - 0.0 - - - - - - -
31/11:00am 19.1 N 1 3 1026.8 - 0.0 - - - - - - -
31/10:30am 17.9 CALM 0 0 1027.2 - 0.0 - - - - - - -
31/10:00am 16.3 CALM 0 0 1027.1 - 0.0 - - - - - - -
31/09:30am 14.9 NNE 1 4 1027.0 - 0.0 - - - - - - -
31/09:00am 13.3 NE 4 6 1026.8 - 0.0 - - - - - - -
31/08:30am 12.1 NE 4 6 1026.6 - 0.0 - - - - - - -
31/08:00am 11.7 NE 4 6 1026.3 - 0.0 - - - - - - -
31/07:30am 11.4 CALM 0 0 1026.2 - 0.0 - - - - - - -
31/07:00am 11.7 NE 1 4 1025.9 - 0.0 - - - - - - -
31/06:30am 11.7 ESE 1 3 1025.6 - 0.0 - - - - - - -
31/06:00am 12.1 CALM 0 1 1025.5 - 0.0 - - - - - - -
31/05:30am 12.3 CALM 0 0 1025.3 - 0.0 - - - - - - -
31/05:00am 12.4 CALM 0 0 1025.2 - 0.0 - - - - - - -
31/04:30am 12.6 CALM 0 0 1025.2 - 0.0 - - - - - - -
31/04:00am 12.6 CALM 0 0 1025.4 - 0.0 - - - - - - -
31/03:30am 12.6 CALM 0 0 1025.6 - 0.0 - - - - - - -
31/03:00am 13.0 CALM 0 0 1025.7 - 0.0 - - - - - - -
31/02:30am 12.9 CALM 0 0 1025.8 - 0.0 - - - - - - -
31/02:00am 13.2 CALM 0 0 1025.9 - 0.0 - - - - - - -
31/01:30am 13.4 CALM 0 0 1026.0 - 0.0 - - - - - - -
31/01:00am 13.8 CALM 0 0 1026.1 - 0.0 - - - - - - -
31/12:30am 14.2 CALM 0 0 1026.2 - 0.0 - - - - - - -
31/12:00am 14.6 CALM 0 1 1026.3 - 0.0 - - - - - - -
 
Date/Time
EDT
Temp

°C
Wind Pressure Rain
since 9am
mm
Weather Cloud Vis
km
Sea
Height
m
Swell
Dir
 
Speed
knots
Gust
knots
hPa Trend Height
m
Period
s
Dir
30/11:30pm 15.3 CALM 0 3 1026.4 - 0.0 - - - - - - -
30/11:00pm 15.6 CALM 0 4 1026.5 - 0.0 - - - - - - -
30/10:30pm 15.8 CALM 0 3 1026.4 - 0.0 - - - - - - -
30/10:00pm 16.6 S 2 5 1026.4 - 0.0 - - - - - - -
30/09:30pm 17.4 S 3 6 1026.3 - 0.0 - - - - - - -
30/09:00pm 18.0 S 3 6 1026.0 - 0.0 - - - - - - -
30/08:30pm 18.7 SSE 6 9 1025.6 - 0.0 - - - - - - -
30/08:00pm 18.5 SSW 2 6 1025.1 - 0.0 - - - - - - -
30/07:30pm 19.0 SSW 3 7 1024.7 - 0.0 - - - - - - -
30/07:00pm 19.5 SSW 4 8 1024.6 - 0.0 - - - - - - -
30/06:30pm 20.1 SSW 5 9 1024.2 - 0.0 - - - - - - -
30/06:00pm 21.7 SW 5 8 1023.8 - 0.0 - - - - - - -
30/05:30pm 22.4 SSW 6 10 1023.4 - 0.0 - - - - - - -
30/05:00pm 22.4 SSW 5 8 1023.0 - 0.0 - - - - - - -
30/04:30pm 22.7 SSW 7 11 1023.0 - 0.0 - - - - - - -
30/04:00pm 22.5 S 6 9 1023.1 - 0.0 - - - - - - -
30/03:30pm 22.0 SSW 7 11 1023.4 - 0.0 - - - - - - -
30/03:00pm 22.7 S 5 8 1023.5 - 0.0 - - - - - - -
30/02:30pm 21.4 SSW 7 11 1023.7 - 0.0 - - - - - - -
30/02:00pm 21.2 S 6 10 1023.8 - 0.0 - - - - - - -
30/01:30pm 20.8 SSW 7 11 1024.0 - 0.0 - - - - - - -
30/01:00pm 21.0 SSW 6 10 1024.2 - 0.0 - - - - - - -
30/12:30pm 21.0 N 2 3 1024.4 - 0.0 - - - - - - -
30/12:00pm 20.9 W 2 4 1024.6 - 0.0 - - - - - - -
30/11:30am 20.2 CALM 0 0 1024.9 - 0.0 - - - - - - -
30/11:00am 18.8 NNE 2 4 1025.2 - 0.0 - - - - - - -
30/10:30am 17.2 NNW 2 4 1025.1 - 0.0 - - - - - - -
30/10:00am 15.9 CALM 0 0 1025.0 - 0.0 - - - - - - -
30/09:30am 14.6 NNE 4 5 1024.8 - 0.0 - - - - - - -
30/09:00am 13.3 CALM 0 0 1024.6 - 0.0 - - - - - - -
30/08:30am 11.2 CALM 0 0 1024.4 - 0.0 - - - - - - -
30/08:00am 10.9 NNE 2 4 1024.1 - 0.0 - - - - - - -
30/07:30am 10.7 NNE 1 4 1023.7 - 0.0 - - - - - - -
30/07:00am 11.0 NNE 3 4 1023.4 - 0.0 - - - - - - -
30/06:30am 11.4 NNE 4 6 1023.0 - 0.0 - - - - - - -
30/06:00am 11.3 NE 5 7 1022.8 - 0.0 - - - - - - -
30/05:30am 11.6 NE 4 6 1022.9 - 0.0 - - - - - - -
30/05:00am 11.2 N 2 5 1022.8 - 0.0 - - - - - - -
30/04:30am 11.5 NE 3 5 1022.6 - 0.0 - - - - - - -
30/04:00am 11.3 CALM 0 0 1022.8 - 0.0 - - - - - - -
30/03:30am 11.7 CALM 0 0 1023.1 - 0.0 - - - - - - -
30/03:00am 12.9 NNE 1 5 1023.2 - 0.0 - - - - - - -
30/02:30am 12.3 CALM 0 3 1023.4 - 0.0 - - - - - - -
30/02:00am 12.1 CALM 0 0 1023.5 - 0.0 - - - - - - -
30/01:30am 12.4 CALM 0 0 1023.6 - 0.0 - - - - - - -
30/01:00am 12.6 CALM 0 0 1023.6 - 0.0 - - - - - - -
30/12:30am 12.9 CALM 0 0 1023.7 - 0.0 - - - - - - -
30/12:00am 13.5 CALM 0 0 1023.9 - 0.0 - - - - - - -
 
Date/Time
EDT
Temp

°C
Wind Pressure Rain
since 9am
mm
Weather Cloud Vis
km
Sea
Height
m
Swell
Dir
 
Speed
knots
Gust
knots
hPa Trend Height
m
Period
s
Dir
29/11:30pm 14.3 CALM 0 0 1024.0 - 0.0 - - - - - - -
29/11:00pm 14.9 CALM 0 0 1024.0 - 0.0 - - - - - - -
29/10:30pm 15.4 CALM 0 1 1024.1 - 0.0 - - - - - - -
29/10:00pm 16.0 CALM 0 0 1024.0 - 0.0 - - - - - - -
29/09:30pm 16.7 SSE 3 6 1023.7 - 0.0 - - - - - - -
29/09:00pm 17.3 SE 6 11 1023.3 - 0.0 - - - - - - -
29/08:30pm 17.9 SSE 6 11 1022.6 - 0.0 - - - - - - -
29/08:00pm 18.2 S 4 7 1022.1 - 0.0 - - - - - - -
29/07:30pm 18.5 SSW 3 7 1021.7 - 0.0 - - - - - - -
29/07:00pm 19.6 SSW 5 9 1021.1 - 0.0 - - - - - - -
29/06:30pm 20.7 SW 4 7 1020.6 - 0.0 - - - - - - -
29/06:00pm 22.4 S 3 7 1020.3 - 0.0 - - - - - - -
29/05:30pm 22.2 S 6 10 1020.2 - 0.0 - - - - - - -
29/05:00pm 22.2 S 6 11 1020.2 - 0.0 - - - - - - -
29/04:30pm 22.2 S 6 11 1020.2 - 0.0 - - - - - - -
29/04:00pm 21.6 SSW 7 11 1020.4 - 0.0 - - - - - - -
29/03:30pm 21.6 S 7 11 1020.6 - 0.0 - - - - - - -
29/03:00pm 20.7 SSW 9 14 1020.8 - 0.0 - - - - - - -
29/02:30pm 20.7 SSW 7 12 1021.1 - 0.0 - - - - - - -
29/02:00pm 20.8 SSW 6 10 1021.2 - 0.0 - - - - - - -
29/01:30pm 20.4 SSW 7 11 1021.5 - 0.0 - - - - - - -
29/01:00pm 20.3 S 7 11 1021.8 - 0.0 - - - - - - -
29/12:30pm 21.3 SW 5 8 1022.0 - 0.0 - - - - - - -
29/12:00pm 21.9 N 1 9 1022.3 - 0.0 - - - - - - -
29/11:30am 20.7 E 1 3 1022.7 - 0.0 - - - - - - -
29/11:00am 19.4 ENE 1 4 1023.1 - 0.0 - - - - - - -
29/10:30am 16.7 NNE 4 5 1023.1 - 0.0 - - - - - - -
29/10:00am 14.5 NNE 3 5 1023.3 - 0.0 - - - - - - -
29/09:30am 12.2 NNE 7 8 1023.4 - 0.0 - - - - - - -
29/09:00am 10.6 NE 6 7 1023.3 - 0.0 - - - - - - -
29/08:30am 9.1 NNE 5 8 1023.2 - 0.0 - - - - - - -
29/08:00am 8.6 NNE 6 7 1022.9 - 0.0 - - - - - - -
29/07:30am 8.7 NNE 5 6 1022.6 - 0.0 - - - - - - -
29/07:00am 9.0 NNE 5 6 1022.2 - 0.0 - - - - - - -
29/06:30am 9.2 NNE 4 5 1021.7 - 0.0 - - - - - - -
29/06:00am 9.3 NNE 4 6 1021.4 - 0.0 - - - - - - -
29/05:30am 9.5 NNE 5 6 1021.2 - 0.0 - - - - - - -
29/05:00am 9.6 NE 3 6 1020.9 - 0.0 - - - - - - -
29/04:30am 9.8 NNE 4 6 1020.9 - 0.0 - - - - - - -
29/04:00am 10.1 NNE 5 7 1020.7 - 0.0 - - - - - - -
29/03:30am 10.4 NE 6 7 1021.1 - 0.0 - - - - - - -
29/03:00am 10.8 NNE 6 8 1021.4 - 0.0 - - - - - - -

Other Formats:

Comma delimited format used in spreadsheet applications
http://www.bom.gov.au/fwo/IDV60701/IDV60701.95936.axf

JavaScript Object Notation format (JSON) in row-major order
http://www.bom.gov.au/fwo/IDV60701/IDV60701.95936.json